Time;durP1;ratioP1;P1;durP2;ratioP2;P2;SDS_P1;SDS_P2;PMS_P1;PMS_P2;Temp;Humidity;BMP_temperature;BMP_pressure;BME280_temperature;BME280_humidity;BME280_pressure;Samples;Min_cycle;Max_cycle;Signal;HPM_P1;HPM_P2
2023/09/08 00:02:13;;;;;;;0.80;0.80;;;;;;;19.32;88.65;97439.97;5083124;28;20058;-63
2023/09/08 00:04:40;;;;;;;0.90;0.90;;;;;;;19.20;89.54;97434.84;5083829;28;20059;-61
2023/09/08 00:07:06;;;;;;;0.80;0.80;;;;;;;19.16;89.70;97448.13;5088846;28;20036;-62
2023/09/08 00:09:33;;;;;;;0.80;0.80;;;;;;;19.08;90.19;97440.97;5085444;28;20040;-61
2023/09/08 00:12:00;;;;;;;0.80;0.80;;;;;;;18.93;90.12;97419.06;5083486;28;20131;-61
2023/09/08 00:14:27;;;;;;;0.80;0.80;;;;;;;19.18;89.22;97445.69;5083022;28;20075;-61
2023/09/08 00:16:54;;;;;;;0.80;0.80;;;;;;;19.27;88.64;97439.56;5086986;28;20063;-60
2023/09/08 00:19:22;;;;;;;0.80;0.80;;;;;;;19.15;88.80;97415.63;5085775;28;20044;-61
2023/09/08 00:21:50;;;;;;;0.80;0.80;;;;;;;19.42;87.50;97444.69;5086912;28;20598;-61
2023/09/08 00:24:18;;;;;;;0.80;0.80;;;;;;;19.40;87.40;97437.88;5086443;28;20051;-61
2023/09/08 00:26:45;;;;;;;0.80;0.80;;;;;;;19.24;88.83;97444.03;5086786;28;20434;-61
2023/09/08 00:29:11;;;;;;;0.82;0.82;;;;;;;19.33;87.69;97433.13;5086928;28;20048;-61
2023/09/08 00:31:38;;;;;;;0.80;0.80;;;;;;;19.40;87.15;97441.47;5086980;28;20522;-62
2023/09/08 00:34:06;;;;;;;0.90;0.90;;;;;;;19.44;86.33;97442.22;5086819;28;20052;-61
2023/09/08 00:36:33;;;;;;;0.80;0.80;;;;;;;19.31;87.00;97444.00;5086237;28;20547;-61
2023/09/08 00:39:00;;;;;;;0.82;0.82;;;;;;;18.57;87.82;97365.28;5086708;28;20056;-62
2023/09/08 00:41:27;;;;;;;0.82;0.82;;;;;;;18.83;88.28;97419.97;5086358;28;20134;-62
2023/09/08 00:43:53;;;;;;;0.90;0.90;;;;;;;18.96;89.18;97438.69;5085343;28;20457;-61
2023/09/08 00:46:21;;;;;;;0.80;0.80;;;;;;;18.91;89.40;97441.94;5086110;28;20052;-61
2023/09/08 00:48:47;;;;;;;0.80;0.80;;;;;;;18.92;89.01;97454.00;5086162;28;20438;-61
2023/09/08 00:51:14;;;;;;;0.70;0.70;;;;;;;18.79;89.66;97434.06;5086070;28;20078;-62
2023/09/08 00:53:41;;;;;;;0.80;0.80;;;;;;;18.83;89.80;97446.03;5086467;28;20126;-61
2023/09/08 00:56:10;;;;;;;0.80;0.80;;;;;;;18.79;88.94;97445.28;5068148;28;20052;-61
2023/09/08 00:58:36;;;;;;;0.85;0.85;;;;;;;18.46;88.89;97395.44;5085910;28;20056;-63
2023/09/08 01:01:05;;;;;;;0.90;0.90;;;;;;;18.71;89.08;97440.94;5084653;28;20520;-62
2023/09/08 01:03:32;;;;;;;0.82;0.82;;;;;;;18.35;89.96;97397.53;5084921;28;20047;-61
2023/09/08 01:06:00;;;;;;;0.80;0.80;;;;;;;18.60;89.84;97437.41;5067893;28;20060;-61
2023/09/08 01:08:27;;;;;;;0.80;0.80;;;;;;;18.15;90.34;97392.88;5101714;28;20047;-63
2023/09/08 01:10:54;;;;;;;0.80;0.80;;;;;;;18.36;91.32;97432.75;5106278;28;20615;-61
2023/09/08 01:13:21;;;;;;;0.80;0.80;;;;;;;18.44;90.54;97428.72;5106374;28;20062;-60
2023/09/08 01:15:49;;;;;;;0.70;0.70;;;;;;;18.21;91.69;97425.63;5088287;28;20047;-61
2023/09/08 01:18:16;;;;;;;0.70;0.70;;;;;;;17.82;92.04;97374.63;5106146;28;20066;-61
2023/09/08 01:20:45;;;;;;;0.80;0.80;;;;;;;18.22;92.26;97424.44;5106199;28;20047;-61
2023/09/08 01:23:22;;;;;;;0.80;0.80;;;;;;;18.12;91.67;97419.69;5106209;28;20047;-61
2023/09/08 01:26:08;;;;;;;0.70;0.70;;;;;;;18.14;92.36;97420.09;5106261;28;20126;-61
2023/09/08 01:28:37;;;;;;;0.80;0.80;;;;;;;18.04;92.23;97415.34;5087579;28;20047;-60
2023/09/08 01:31:04;;;;;;;0.80;0.80;;;;;;;17.56;93.58;97366.78;5087640;28;20160;-60
2023/09/08 01:33:31;;;;;;;0.80;0.80;;;;;;;17.70;93.20;97383.53;5087689;28;20070;-61
2023/09/08 01:35:58;;;;;;;0.80;0.80;;;;;;;18.02;92.26;97417.75;5087530;28;20050;-61
2023/09/08 01:38:24;;;;;;;0.80;0.80;;;;;;;18.01;91.75;97416.16;5106207;28;20058;-61
2023/09/08 01:40:51;;;;;;;0.80;0.80;;;;;;;17.89;92.50;97408.25;5087440;28;20054;-60
2023/09/08 01:43:18;;;;;;;0.80;0.80;;;;;;;17.85;93.15;97407.44;5087505;28;20501;-62
2023/09/08 01:45:44;;;;;;;0.70;0.70;;;;;;;16.51;92.48;97216.84;5105624;28;20047;-61
2023/09/08 01:48:11;;;;;;;0.73;0.73;;;;;;;17.84;91.95;97411.47;5076415;28;20055;-61
2023/09/08 01:50:38;;;;;;;0.80;0.80;;;;;;;17.78;92.64;97407.50;5104506;28;20536;-61
2023/09/08 01:53:04;;;;;;;0.80;0.80;;;;;;;17.34;93.04;97348.47;5105536;28;20047;-62
2023/09/08 01:55:31;;;;;;;0.70;0.70;;;;;;;17.66;92.82;97410.75;5105784;28;20062;-61
2023/09/08 01:57:58;;;;;;;0.70;0.70;;;;;;;17.65;92.96;97406.34;5105915;28;20055;-61
2023/09/08 02:00:24;;;;;;;0.80;0.80;;;;;;;17.66;92.28;97416.34;5105134;28;20945;-61
2023/09/08 02:02:51;;;;;;;0.80;0.80;;;;;;;17.68;92.03;97414.75;5105549;28;20044;-62
2023/09/08 02:05:18;;;;;;;0.80;0.80;;;;;;;17.51;92.55;97420.44;5086907;28;20176;-63
2023/09/08 02:07:45;;;;;;;0.70;0.70;;;;;;;17.43;92.61;97422.44;5083262;28;20044;-61
2023/09/08 02:10:12;;;;;;;0.70;0.70;;;;;;;17.42;91.82;97422.84;5084581;28;20162;-61
2023/09/08 02:12:38;;;;;;;0.73;0.73;;;;;;;17.30;92.95;97421.28;5084803;28;20135;-62
2023/09/08 02:15:06;;;;;;;0.70;0.70;;;;;;;17.45;91.64;97416.47;5084954;28;20048;-61
2023/09/08 02:17:32;;;;;;;0.80;0.80;;;;;;;17.35;91.44;97418.06;5084621;28;20080;-61
2023/09/08 02:19:59;;;;;;;0.80;0.80;;;;;;;16.87;92.97;97368.59;5085259;28;20052;-61
2023/09/08 02:22:26;;;;;;;0.70;0.70;;;;;;;16.77;92.76;97363.84;5084895;28;20059;-61
2023/09/08 02:24:52;;;;;;;0.70;0.70;;;;;;;17.17;91.54;97427.69;5084446;28;20062;-61
2023/09/08 02:27:20;;;;;;;0.80;0.80;;;;;;;16.41;91.40;97324.72;5083007;28;20075;-61
2023/09/08 02:29:47;;;;;;;0.70;0.70;;;;;;;16.90;92.73;97415.41;5082957;28;20087;-61
2023/09/08 02:32:14;;;;;;;0.75;0.75;;;;;;;16.85;93.06;97421.41;5084489;28;20054;-62
2023/09/08 02:34:42;;;;;;;0.70;0.70;;;;;;;16.76;93.99;97412.59;5082954;28;20117;-61
2023/09/08 02:37:09;;;;;;;0.70;0.70;;;;;;;16.67;93.65;97412.22;5082221;28;20044;-61
2023/09/08 02:39:35;;;;;;;0.70;0.70;;;;;;;16.64;93.56;97408.22;5084137;28;20048;-62
2023/09/08 02:42:02;;;;;;;0.70;0.70;;;;;;;16.63;94.59;97401.81;5084374;28;20569;-60
2023/09/08 02:44:30;;;;;;;0.65;0.65;;;;;;;16.46;95.91;97413.81;5084396;28;20048;-61
2023/09/08 02:46:56;;;;;;;0.70;0.70;;;;;;;16.56;94.07;97410.25;5084574;28;20052;-60
2023/09/08 02:49:23;;;;;;;0.70;0.70;;;;;;;16.62;93.36;97407.81;5084399;28;20362;-62
2023/09/08 02:51:50;;;;;;;0.60;0.60;;;;;;;16.58;93.59;97405.03;5082684;28;20087;-61
2023/09/08 02:54:16;;;;;;;0.70;0.70;;;;;;;16.38;94.90;97409.41;5084361;28;20052;-61
2023/09/08 02:56:43;;;;;;;0.70;0.70;;;;;;;16.40;93.75;97401.41;5084469;28;20052;-63
2023/09/08 02:59:09;;;;;;;0.75;0.75;;;;;;;16.55;92.79;97397.44;5084300;28;20052;-61
2023/09/08 03:01:36;;;;;;;0.70;0.70;;;;;;;16.54;93.12;97407.03;5083847;28;20517;-60
2023/09/08 03:04:03;;;;;;;0.80;0.80;;;;;;;16.57;93.01;97400.63;5082349;28;20500;-60
2023/09/08 03:06:30;;;;;;;0.75;0.75;;;;;;;16.55;91.87;97414.22;5084245;28;20139;-61
2023/09/08 03:08:58;;;;;;;0.70;0.70;;;;;;;16.45;91.79;97408.63;5103316;28;20054;-62
2023/09/08 03:11:25;;;;;;;0.70;0.70;;;;;;;16.45;91.36;97398.22;5104273;28;20062;-61
2023/09/08 03:13:51;;;;;;;0.70;0.70;;;;;;;16.36;91.66;97402.63;5086335;28;20433;-60
2023/09/08 03:16:18;;;;;;;0.70;0.70;;;;;;;16.31;91.90;97403.78;5104183;28;20051;-60
2023/09/08 03:18:45;;;;;;;0.70;0.70;;;;;;;16.11;91.87;97419.34;5103775;28;20082;-61
2023/09/08 03:21:14;;;;;;;0.60;0.60;;;;;;;16.27;91.77;97397.41;5104147;28;20066;-62
2023/09/08 03:23:43;;;;;;;0.70;0.70;;;;;;;16.22;92.18;97402.59;5104173;28;20056;-61
2023/09/08 03:26:10;;;;;;;0.60;0.60;;;;;;;16.18;92.53;97411.00;5104085;28;20058;-61
2023/09/08 03:28:38;;;;;;;0.70;0.70;;;;;;;16.19;92.53;97401.41;5104119;28;20055;-61
2023/09/08 03:31:06;;;;;;;0.70;0.70;;;;;;;16.22;92.31;97400.59;5104068;28;20051;-63
2023/09/08 03:33:32;;;;;;;0.68;0.68;;;;;;;16.33;92.19;97406.19;5086494;28;20103;-61
2023/09/08 03:36:00;;;;;;;0.60;0.60;;;;;;;16.24;91.84;97403.81;5104245;28;20812;-61
2023/09/08 03:38:27;;;;;;;0.68;0.68;;;;;;;15.59;90.04;97283.19;5085718;28;20052;-61
2023/09/08 03:40:53;;;;;;;0.70;0.70;;;;;;;16.26;90.46;97398.63;5104107;28;20054;-62
2023/09/08 03:43:20;;;;;;;0.60;0.60;;;;;;;16.17;90.90;97391.81;5085629;28;20134;-61
2023/09/08 03:45:47;;;;;;;0.70;0.70;;;;;;;15.61;91.52;97333.88;5103854;28;20349;-60
2023/09/08 03:48:14;;;;;;;0.70;0.70;;;;;;;15.80;93.08;97399.75;5104255;28;20128;-60
2023/09/08 03:50:41;;;;;;;0.70;0.70;;;;;;;15.82;93.38;97402.94;5106734;28;20119;-61
2023/09/08 03:53:08;;;;;;;0.70;0.70;;;;;;;15.80;92.90;97389.38;5108380;28;20051;-61
2023/09/08 03:55:35;;;;;;;0.70;0.70;;;;;;;15.59;93.14;97353.00;5089385;28;20048;-62
2023/09/08 03:58:01;;;;;;;0.60;0.60;;;;;;;15.68;93.42;97347.81;5089498;28;20098;-60
2023/09/08 04:00:28;;;;;;;0.65;0.65;;;;;;;16.03;93.19;97398.19;5107272;28;20051;-61
2023/09/08 04:02:55;;;;;;;0.70;0.70;;;;;;;16.03;92.20;97406.56;5107797;28;20055;-62
2023/09/08 04:05:22;;;;;;;0.70;0.70;;;;;;;15.95;91.58;97402.16;5088874;28;20070;-61
2023/09/08 04:07:48;;;;;;;0.70;0.70;;;;;;;16.02;91.88;97396.59;5098443;28;20134;-61
2023/09/08 04:10:15;;;;;;;0.60;0.60;;;;;;;15.48;90.39;97323.44;5068882;28;20051;-60
2023/09/08 04:12:42;;;;;;;0.60;0.60;;;;;;;15.76;91.36;97354.25;5068602;28;20055;-61
2023/09/08 04:15:09;;;;;;;0.70;0.70;;;;;;;16.08;90.60;97403.38;5068823;28;20048;-61
2023/09/08 04:17:37;;;;;;;0.68;0.68;;;;;;;15.81;90.26;97357.44;5086812;28;20071;-61
2023/09/08 04:20:05;;;;;;;0.70;0.70;;;;;;;16.09;90.59;97399.38;5086880;28;20616;-61
2023/09/08 04:22:32;;;;;;;0.70;0.70;;;;;;;16.18;89.98;97411.00;5085287;28;20070;-61
2023/09/08 04:24:59;;;;;;;0.68;0.68;;;;;;;15.73;90.39;97338.28;5086819;28;20518;-62
2023/09/08 04:27:26;;;;;;;0.70;0.70;;;;;;;15.86;89.08;97348.66;5086788;28;20044;-62
2023/09/08 04:29:53;;;;;;;0.70;0.70;;;;;;;16.34;88.65;97408.59;5087067;28;20212;-60
2023/09/08 04:32:20;;;;;;;0.70;0.70;;;;;;;16.31;88.71;97417.78;5068615;28;20057;-61
2023/09/08 04:34:46;;;;;;;0.70;0.70;;;;;;;16.47;88.12;97418.22;5068527;28;20361;-60
2023/09/08 04:37:14;;;;;;;0.70;0.70;;;;;;;16.47;88.70;97417.44;5068242;28;20052;-60
2023/09/08 04:39:40;;;;;;;0.70;0.70;;;;;;;16.09;87.68;97357.47;5086283;28;20498;-61
2023/09/08 04:42:07;;;;;;;0.70;0.70;;;;;;;16.61;86.68;97409.03;5086442;28;20055;-61
2023/09/08 04:44:34;;;;;;;0.80;0.80;;;;;;;16.84;85.72;97426.19;5086232;28;20131;-63
2023/09/08 04:47:00;;;;;;;0.70;0.70;;;;;;;17.09;85.89;97431.72;5068364;28;20434;-61
2023/09/08 04:49:28;;;;;;;0.80;0.80;;;;;;;17.26;84.87;97425.31;5086426;28;20048;-61
2023/09/08 04:51:56;;;;;;;0.70;0.70;;;;;;;17.41;82.85;97438.03;5086019;28;20052;-61
2023/09/08 04:54:26;;;;;;;0.80;0.80;;;;;;;17.37;82.18;97406.47;5068251;28;20048;-61
2023/09/08 04:56:54;;;;;;;0.80;0.80;;;;;;;17.76;81.66;97433.13;5085935;28;20087;-61
2023/09/08 04:59:29;;;;;;;0.80;0.80;;;;;;;17.91;80.21;97433.84;5086383;28;20059;-60
2023/09/08 05:01:56;;;;;;;0.80;0.80;;;;;;;17.85;80.08;97407.44;5085659;28;20173;-60
2023/09/08 05:04:23;;;;;;;0.70;0.70;;;;;;;18.10;79.40;97430.53;5085549;28;20063;-61
2023/09/08 05:06:49;;;;;;;0.80;0.80;;;;;;;17.86;79.33;97369.81;5088468;28;20067;-60
2023/09/08 05:09:16;;;;;;;0.80;0.80;;;;;;;18.37;79.52;97428.72;5105166;28;20070;-62
2023/09/08 05:11:43;;;;;;;0.90;0.90;;;;;;;18.53;78.25;97443.06;5105942;28;20081;-60
2023/09/08 05:14:10;;;;;;;0.80;0.80;;;;;;;18.52;77.49;97396.59;5106591;28;20044;-60
2023/09/08 05:16:39;;;;;;;0.80;0.80;;;;;;;18.96;76.92;97424.66;5105876;28;20061;-61
2023/09/08 05:19:06;;;;;;;0.80;0.80;;;;;;;18.99;76.37;97431.44;5105891;28;20059;-60
2023/09/08 05:21:34;;;;;;;0.80;0.80;;;;;;;19.16;76.23;97425.66;5106068;28;20490;-62
2023/09/08 05:24:01;;;;;;;0.90;0.90;;;;;;;19.33;75.02;97435.16;5104795;28;20052;-62
2023/09/08 05:26:27;;;;;;;0.90;0.90;;;;;;;19.44;74.65;97452.69;5105029;28;20047;-61
2023/09/08 05:28:54;;;;;;;0.80;0.80;;;;;;;19.65;73.79;97437.59;5087688;28;20229;-62
2023/09/08 05:31:21;;;;;;;0.82;0.82;;;;;;;19.84;73.37;97436.94;5105543;28;20486;-60
2023/09/08 05:33:48;;;;;;;0.88;0.88;;;;;;;20.02;72.14;97437.50;5087399;28;20047;-62
2023/09/08 05:36:14;;;;;;;1.00;1.00;;;;;;;19.78;72.01;97371.13;5105839;28;20047;-63
2023/09/08 05:38:41;;;;;;;0.80;0.80;;;;;;;20.25;72.47;97434.78;5105386;28;20100;-62
2023/09/08 05:41:08;;;;;;;0.90;0.90;;;;;;;20.34;71.96;97437.88;5105502;28;20053;-61
2023/09/08 05:43:35;;;;;;;0.80;0.80;;;;;;;20.66;71.21;97438.16;5105406;28;20741;-61
2023/09/08 05:46:02;;;;;;;0.80;0.80;;;;;;;20.87;68.94;97437.78;5105197;28;20047;-62
2023/09/08 05:48:28;;;;;;;0.90;0.90;;;;;;;21.03;69.42;97435.13;5105361;28;20576;-61
2023/09/08 05:50:55;;;;;;;0.90;0.90;;;;;;;21.21;69.50;97446.91;5105359;28;20062;-61
2023/09/08 05:53:22;;;;;;;0.80;0.80;;;;;;;21.36;70.18;97447.41;5090380;28;20548;-62
2023/09/08 05:55:49;;;;;;;0.93;0.93;;;;;;;21.59;68.00;97439.69;5085063;28;20052;-62
2023/09/08 05:58:15;;;;;;;0.80;0.80;;;;;;;21.84;66.91;97433.59;5085322;28;20446;-62
2023/09/08 06:00:42;;;;;;;0.95;0.95;;;;;;;21.95;65.75;97434.97;5085476;28;20055;-61
2023/09/08 06:03:09;;;;;;;0.90;0.90;;;;;;;21.46;63.99;97371.09;5085244;28;20052;-62
2023/09/08 06:05:36;;;;;;;1.00;1.00;;;;;;;20.94;64.75;97248.97;5082601;28;20585;-65
2023/09/08 06:08:03;;;;;;;0.98;0.98;;;;;;;22.27;62.63;97429.38;5082890;28;20048;-65
2023/09/08 06:10:33;;;;;;;1.08;1.08;;;;;;;22.60;62.78;97430.28;5082574;28;20052;-60
2023/09/08 06:13:01;;;;;;;0.90;0.90;;;;;;;22.13;61.61;97308.34;5083152;28;20072;-61
2023/09/08 06:15:28;;;;;;;1.00;1.00;;;;;;;22.86;60.88;97411.47;5083486;28;20425;-64
2023/09/08 06:17:55;;;;;;;0.93;0.93;;;;;;;23.11;59.86;97431.41;5081154;28;20055;-64
2023/09/08 06:20:22;;;;;;;1.08;1.08;;;;;;;22.61;58.31;97368.91;5099044;28;20055;-63
2023/09/08 06:22:49;;;;;;;1.10;1.10;;;;;;;23.39;58.36;97433.50;5081737;28;20059;-59
2023/09/08 06:25:16;;;;;;;1.10;1.10;;;;;;;22.55;54.87;97302.91;5083960;28;20083;-62
2023/09/08 06:27:42;;;;;;;1.00;1.00;;;;;;;23.13;55.22;97375.22;5083709;28;20074;-60
2023/09/08 06:30:10;;;;;;;1.00;1.00;;;;;;;22.53;55.09;97311.03;5083563;28;20123;-59
2023/09/08 06:32:36;;;;;;;1.00;1.00;;;;;;;23.04;53.62;97363.75;5082873;28;20059;-62
2023/09/08 06:35:03;;;;;;;1.00;1.00;;;;;;;23.66;53.78;97425.47;5077964;28;20101;-61
2023/09/08 06:37:36;;;;;;;1.00;1.00;;;;;;;23.53;51.97;97430.28;5081057;28;20347;-59
2023/09/08 06:40:04;;;;;;;1.02;1.02;;;;;;;23.44;52.46;97382.84;5081066;28;20052;-63
2023/09/08 06:42:31;;;;;;;1.00;1.00;;;;;;;23.66;51.88;97428.31;5082902;28;20137;-61
2023/09/08 06:44:59;;;;;;;1.13;1.13;;;;;;;23.84;52.08;97434.25;5082375;28;20620;-63
2023/09/08 06:47:25;;;;;;;0.95;0.95;;;;;;;24.11;50.53;97440.34;5078617;28;20130;-61
2023/09/08 06:49:52;;;;;;;1.02;1.02;;;;;;;23.92;50.69;97427.13;5073430;28;20062;-60
2023/09/08 06:52:19;;;;;;;1.20;1.20;;;;;;;24.08;50.06;97438.41;5083107;28;20139;-61
2023/09/08 06:54:46;;;;;;;1.00;1.00;;;;;;;23.95;49.95;97434.72;5079037;28;20052;-58
2023/09/08 06:57:13;;;;;;;1.00;1.00;;;;;;;24.03;49.86;97438.97;5082338;28;20052;-60
2023/09/08 06:59:40;;;;;;;0.95;0.95;;;;;;;24.09;50.85;97444.88;5083294;28;20165;-60
2023/09/08 07:02:07;;;;;;;1.08;1.08;;;;;;;24.46;49.70;97436.44;5078285;28;20054;-59
2023/09/08 07:04:34;;;;;;;1.20;1.20;;;;;;;24.43;49.09;97436.53;5079703;28;20071;-59
2023/09/08 07:07:06;;;;;;;1.13;1.13;;;;;;;24.26;49.46;97438.69;5080329;28;20050;-60
2023/09/08 07:09:37;;;;;;;1.13;1.13;;;;;;;24.43;49.11;97437.34;5080789;28;20048;-62
2023/09/08 07:12:06;;;;;;;1.00;1.00;;;;;;;24.34;49.07;97445.72;5066053;28;20287;-61
2023/09/08 07:14:35;;;;;;;1.00;1.00;;;;;;;24.27;48.84;97443.09;5062787;28;20059;-61
2023/09/08 07:17:02;;;;;;;1.17;1.17;;;;;;;24.45;48.72;97440.50;5074623;28;20060;-61
2023/09/08 07:19:29;;;;;;;1.15;1.15;;;;;;;24.47;48.50;97398.34;5082584;28;20048;-62
2023/09/08 07:21:56;;;;;;;1.25;1.25;;;;;;;24.82;48.56;97419.88;5079370;28;20074;-65
2023/09/08 07:24:24;;;;;;;1.23;1.23;;;;;;;24.19;49.01;97376.59;5082421;28;20048;-64
2023/09/08 07:26:51;;;;;;;1.10;1.10;;;;;;;24.60;48.08;97435.16;5086778;28;20131;-61
2023/09/08 07:29:17;;;;;;;0.98;0.98;;;;;;;24.21;48.30;97405.25;5080900;28;20040;-61
2023/09/08 07:31:44;;;;;;;1.20;1.20;;;;;;;25.02;48.12;97456.50;5084499;28;20494;-64
2023/09/08 07:34:11;;;;;;;1.15;1.15;;;;;;;25.07;47.82;97444.59;5099173;28;20063;-62
2023/09/08 07:36:38;;;;;;;1.25;1.25;;;;;;;24.91;47.21;97431.31;5077166;28;20066;-61
2023/09/08 07:39:05;;;;;;;1.27;1.27;;;;;;;24.81;47.23;97452.31;5085751;28;20126;-62
2023/09/08 07:41:31;;;;;;;1.20;1.20;;;;;;;23.05;47.00;97144.91;5086519;28;20052;-66
2023/09/08 07:43:58;;;;;;;0.98;0.98;;;;;;;25.45;46.46;97433.16;5073447;28;20135;-62
2023/09/08 07:46:25;;;;;;;1.20;1.20;;;;;;;25.80;46.18;97432.66;5078602;28;20044;-68
2023/09/08 07:48:52;;;;;;;1.40;1.40;;;;;;;25.38;45.12;97331.28;5061624;28;20589;-61
2023/09/08 07:51:19;;;;;;;1.27;1.27;;;;;;;26.01;45.69;97439.63;5069638;28;20044;-62
2023/09/08 07:53:45;;;;;;;1.20;1.20;;;;;;;25.37;46.19;97443.19;5083407;28;20592;-60
2023/09/08 07:56:12;;;;;;;1.30;1.30;;;;;;;25.64;45.56;97441.38;5080223;28;20131;-61
2023/09/08 07:58:39;;;;;;;1.58;1.58;;;;;;;25.57;45.17;97373.53;5086959;28;20048;-61
2023/09/08 08:01:06;;;;;;;1.38;1.38;;;;;;;25.87;45.82;97443.78;5081155;28;20131;-59
2023/09/08 08:03:35;;;;;;;1.25;1.25;;;;;;;25.35;45.99;97354.91;5075689;28;20059;-59
2023/09/08 08:06:02;;;;;;;1.30;1.30;;;;;;;25.34;46.14;97370.34;5082546;28;20048;-60
2023/09/08 08:08:30;;;;;;;1.20;1.20;;;;;;;25.89;45.75;97434.78;5072827;28;20131;-63
2023/09/08 08:10:57;;;;;;;1.30;1.30;;;;;;;25.71;46.02;97441.13;5084272;28;20044;-66
2023/09/08 08:13:24;;;;;;;1.23;1.23;;;;;;;25.60;46.36;97434.22;5084618;28;20518;-58
2023/09/08 08:15:50;;;;;;;1.40;1.40;;;;;;;25.65;45.91;97388.25;5083758;28;20051;-61
2023/09/08 08:18:17;;;;;;;1.40;1.40;;;;;;;26.11;45.70;97419.38;5085902;28;20056;-61
2023/09/08 08:20:45;;;;;;;1.42;1.42;;;;;;;26.36;44.84;97418.38;5086198;28;20048;-59
2023/09/08 08:23:12;;;;;;;1.55;1.55;;;;;;;26.12;45.48;97431.50;5085324;28;20145;-60
2023/09/08 08:25:38;;;;;;;1.33;1.33;;;;;;;25.91;46.63;97420.94;5082275;28;20048;-62
2023/09/08 08:28:05;;;;;;;1.50;1.50;;;;;;;26.63;44.61;97421.34;5086863;28;20044;-59
2023/09/08 08:30:32;;;;;;;1.45;1.45;;;;;;;26.66;45.16;97415.56;5074914;28;20051;-60
2023/09/08 08:32:59;;;;;;;1.38;1.38;;;;;;;26.05;46.13;97414.75;5081309;28;20139;-57
2023/09/08 08:35:26;;;;;;;1.40;1.40;;;;;;;25.78;45.77;97437.22;5082930;28;20457;-59
2023/09/08 08:37:53;;;;;;;1.60;1.60;;;;;;;25.40;46.34;97368.50;5081268;28;20048;-63
2023/09/08 08:40:20;;;;;;;1.25;1.25;;;;;;;25.64;46.60;97417.88;5077340;28;20051;-60
2023/09/08 08:42:47;;;;;;;1.40;1.40;;;;;;;25.77;46.73;97415.75;5080306;28;20064;-63
2023/09/08 08:45:19;;;;;;;1.27;1.27;;;;;;;25.97;46.46;97433.28;5077209;28;20548;-60
2023/09/08 08:47:48;;;;;;;1.20;1.20;;;;;;;25.69;46.57;97405.94;5083749;28;20143;-59
2023/09/08 08:50:17;;;;;;;1.10;1.10;;;;;;;25.20;46.06;97293.00;5085103;28;20047;-66
2023/09/08 08:52:43;;;;;;;1.27;1.27;;;;;;;26.42;45.97;97399.47;5075307;28;20055;-60
2023/09/08 08:55:12;;;;;;;1.35;1.35;;;;;;;26.46;44.99;97402.97;5084078;28;21056;-60
2023/09/08 08:57:39;;;;;;;1.45;1.45;;;;;;;25.92;45.37;97360.03;5083180;28;20048;-59
2023/09/08 09:00:11;;;;;;;1.60;1.60;;;;;;;25.99;46.43;97410.88;5082110;28;20399;-61
2023/09/08 09:02:42;;;;;;;1.30;1.30;;;;;;;25.90;45.79;97407.97;5071611;28;20048;-63
2023/09/08 09:05:12;;;;;;;;;;;;;;;26.04;45.49;97415.97;5066378;28;20058;-60
2023/09/08 09:07:41;;;;;;;1.45;1.45;;;;;;;25.19;46.48;97376.50;5078906;28;20306;-62
2023/09/08 09:10:09;;;;;;;1.15;1.15;;;;;;;25.49;46.99;97417.59;5081145;28;20040;-60
2023/09/08 09:12:39;;;;;;;1.15;1.15;;;;;;;26.18;45.82;97406.91;5079411;28;20055;-62
2023/09/08 09:15:08;;;;;;;1.40;1.40;;;;;;;26.07;45.81;97410.19;5084462;28;20136;-62
2023/09/08 09:17:35;;;;;;;1.30;1.30;;;;;;;26.18;45.62;97412.59;5084455;28;20071;-62
2023/09/08 09:20:17;;;;;;;1.40;1.40;;;;;;;26.21;45.96;97400.28;5084240;28;20176;-62
2023/09/08 09:22:44;;;;;;;1.38;1.38;;;;;;;26.02;45.99;97404.31;5063178;28;20113;-63
2023/09/08 09:25:28;;;;;;;1.27;1.27;;;;;;;26.24;45.14;97416.44;5063050;28;20040;-61
2023/09/08 09:27:57;;;;;;;1.30;1.30;;;;;;;26.25;45.61;97420.84;5064912;28;20048;-61
2023/09/08 09:30:25;;;;;;;1.42;1.42;;;;;;;26.09;44.37;97426.75;5065488;28;20484;-62
2023/09/08 09:33:03;;;;;;;1.25;1.25;;;;;;;25.76;45.77;97408.50;5065559;28;20061;-63
2023/09/08 09:35:45;;;;;;;1.27;1.27;;;;;;;25.50;45.59;97355.97;5064969;28;20075;-61
2023/09/08 09:38:13;;;;;;;1.30;1.30;;;;;;;25.85;45.85;97417.88;5065357;28;20052;-62
2023/09/08 09:40:40;;;;;;;1.40;1.40;;;;;;;25.16;45.63;97348.25;5065046;28;20074;-60
2023/09/08 09:43:07;;;;;;;1.20;1.20;;;;;;;25.82;45.84;97429.38;5065341;28;20080;-62
2023/09/08 09:45:35;;;;;;;1.30;1.30;;;;;;;26.44;45.19;97419.69;5064551;28;20482;-61
2023/09/08 09:48:04;;;;;;;1.30;1.30;;;;;;;26.55;43.78;97417.22;5064434;28;20052;-62
2023/09/08 09:50:36;;;;;;;1.38;1.38;;;;;;;26.92;43.20;97399.03;5063662;28;20077;-61
2023/09/08 09:53:11;;;;;;;1.35;1.35;;;;;;;26.84;43.36;97414.03;5062119;28;20076;-61
2023/09/08 09:55:40;;;;;;;1.40;1.40;;;;;;;26.45;43.26;97325.44;5064350;28;20059;-61
2023/09/08 09:58:10;;;;;;;1.42;1.42;;;;;;;27.44;41.93;97396.00;5064602;28;20052;-61
2023/09/08 10:00:40;;;;;;;1.58;1.58;;;;;;;27.05;41.94;97362.72;5064779;28;20052;-62
2023/09/08 10:03:08;;;;;;;1.50;1.50;;;;;;;26.87;42.07;97396.84;5063306;28;20060;-61
2023/09/08 10:05:36;;;;;;;1.35;1.35;;;;;;;26.76;42.21;97396.50;5063161;28;20485;-61
2023/09/08 10:08:04;;;;;;;1.40;1.40;;;;;;;26.50;43.78;97401.56;5064832;28;20056;-63
2023/09/08 10:10:32;;;;;;;1.55;1.55;;;;;;;27.17;42.19;97387.44;5063267;28;20506;-63
2023/09/08 10:13:03;;;;;;;1.55;1.55;;;;;;;27.27;41.71;97380.50;5064569;28;20158;-62
2023/09/08 10:15:31;;;;;;;1.30;1.30;;;;;;;26.89;42.86;97377.22;5064171;28;20064;-62
2023/09/08 10:17:59;;;;;;;1.50;1.50;;;;;;;27.08;41.45;97390.22;5063976;28;20079;-62
2023/09/08 10:20:28;;;;;;;1.50;1.50;;;;;;;26.71;42.23;97372.28;5062711;28;20056;-63
2023/09/08 10:23:15;;;;;;;1.63;1.63;;;;;;;26.98;41.82;97385.81;5064642;28;20048;-61
2023/09/08 10:25:49;;;;;;;1.50;1.50;;;;;;;26.95;42.50;97386.75;5064402;28;20040;-63
2023/09/08 10:28:16;;;;;;;1.70;1.70;;;;;;;26.64;42.57;97383.16;5063319;28;20048;-62
2023/09/08 10:30:44;;;;;;;1.45;1.45;;;;;;;26.83;42.49;97384.00;5064008;28;20052;-63
2023/09/08 10:33:11;;;;;;;1.60;1.60;;;;;;;25.94;42.45;97323.47;5064045;28;20059;-62
2023/09/08 10:35:40;;;;;;;1.15;1.15;;;;;;;26.08;43.28;97391.09;5062798;28;20522;-62
2023/09/08 10:38:26;;;;;;;1.67;1.67;;;;;;;26.42;42.90;97390.94;5064534;28;20126;-62
2023/09/08 10:41:13;;;;;;;1.50;1.50;;;;;;;26.59;42.56;97350.44;5062387;28;20049;-62
2023/09/08 10:43:43;;;;;;;1.50;1.50;;;;;;;26.30;42.60;97380.47;5063727;28;20083;-62
2023/09/08 10:46:21;;;;;;;1.40;1.40;;;;;;;26.98;42.26;97374.44;5063310;28;20087;-61
2023/09/08 10:48:48;;;;;;;1.30;1.30;;;;;;;27.64;40.80;97376.41;5063948;28;20634;-62
2023/09/08 10:51:15;;;;;;;1.65;1.65;;;;;;;28.35;40.11;97364.56;5063552;28;20045;-63
2023/09/08 10:53:42;;;;;;;1.65;1.65;;;;;;;27.59;39.48;97322.94;5062155;28;20052;-62
2023/09/08 10:56:09;;;;;;;1.55;1.55;;;;;;;27.86;40.61;97365.63;5063406;28;20454;-61
2023/09/08 10:58:49;;;;;;;1.48;1.48;;;;;;;27.77;40.61;97356.28;5064135;28;20122;-63
2023/09/08 11:01:18;;;;;;;1.70;1.70;;;;;;;28.04;40.43;97359.88;5063577;28;20113;-62
2023/09/08 11:03:49;;;;;;;1.50;1.50;;;;;;;28.26;39.91;97353.19;5063777;28;20511;-62
2023/09/08 11:06:18;;;;;;;1.45;1.45;;;;;;;28.27;39.97;97355.56;5063618;28;20056;-62
2023/09/08 11:08:46;;;;;;;1.55;1.55;;;;;;;28.68;38.85;97306.31;5069599;28;20064;-62
2023/09/08 11:11:15;;;;;;;1.55;1.55;;;;;;;29.03;38.98;97340.78;5082070;28;20068;-62
2023/09/08 11:13:45;;;;;;;1.77;1.77;;;;;;;28.29;38.67;97301.72;5083992;28;20082;-61
2023/09/08 11:16:17;;;;;;;1.83;1.83;;;;;;;28.62;38.84;97331.06;5082444;28;20138;-61
2023/09/08 11:18:44;;;;;;;1.42;1.42;;;;;;;28.97;38.21;97340.69;5083867;28;20545;-62
2023/09/08 11:21:12;;;;;;;1.83;1.83;;;;;;;28.73;37.71;97330.50;5083570;28;20052;-61
2023/09/08 11:23:40;;;;;;;1.70;1.70;;;;;;;28.22;39.14;97341.19;5082196;28;20508;-63
2023/09/08 11:26:08;;;;;;;1.75;1.75;;;;;;;27.68;39.45;97334.31;5082293;28;20076;-62
2023/09/08 11:28:36;;;;;;;1.63;1.63;;;;;;;27.99;39.62;97331.28;5082179;28;20521;-62
2023/09/08 11:31:04;;;;;;;1.45;1.45;;;;;;;28.53;39.28;97328.25;5083423;28;20407;-64
2023/09/08 11:33:39;;;;;;;1.60;1.60;;;;;;;29.35;37.25;97325.66;5083710;28;20048;-62
2023/09/08 11:36:14;;;;;;;1.73;1.73;;;;;;;29.31;36.60;97245.13;5083526;28;20144;-62
2023/09/08 11:38:43;;;;;;;1.70;1.70;;;;;;;29.62;36.55;97311.16;5083538;28;20060;-63